sensor_id;sensor_type;location;lat;lon;timestamp;temperature;humidity
47590;DHT22;33316;52.298;9.056;2023-07-22T00:00:40;17.00;77.50
47590;DHT22;33316;52.298;9.056;2023-07-22T00:03:07;17.00;77.60
47590;DHT22;33316;52.298;9.056;2023-07-22T00:05:35;16.90;77.60
47590;DHT22;33316;52.298;9.056;2023-07-22T00:08:02;16.90;77.70
47590;DHT22;33316;52.298;9.056;2023-07-22T00:10:30;16.90;77.80
47590;DHT22;33316;52.298;9.056;2023-07-22T00:12:56;16.80;77.80
47590;DHT22;33316;52.298;9.056;2023-07-22T00:15:23;16.80;78.00
47590;DHT22;33316;52.298;9.056;2023-07-22T00:17:51;16.80;78.00
47590;DHT22;33316;52.298;9.056;2023-07-22T00:20:18;16.80;78.10
47590;DHT22;33316;52.298;9.056;2023-07-22T00:22:47;16.70;78.10
47590;DHT22;33316;52.298;9.056;2023-07-22T00:25:15;16.70;78.20
47590;DHT22;33316;52.298;9.056;2023-07-22T00:27:42;16.70;78.20
47590;DHT22;33316;52.298;9.056;2023-07-22T00:30:10;16.60;78.20
47590;DHT22;33316;52.298;9.056;2023-07-22T00:32:36;16.60;78.40
47590;DHT22;33316;52.298;9.056;2023-07-22T00:35:04;16.60;78.50
47590;DHT22;33316;52.298;9.056;2023-07-22T00:37:31;16.50;78.50
47590;DHT22;33316;52.298;9.056;2023-07-22T00:40:00;16.50;78.60
47590;DHT22;33316;52.298;9.056;2023-07-22T00:42:28;16.50;78.60
47590;DHT22;33316;52.298;9.056;2023-07-22T00:44:55;16.50;78.70
47590;DHT22;33316;52.298;9.056;2023-07-22T00:47:22;16.40;78.70
47590;DHT22;33316;52.298;9.056;2023-07-22T00:49:49;16.40;78.70
47590;DHT22;33316;52.298;9.056;2023-07-22T00:52:16;16.40;79.70
47590;DHT22;33316;52.298;9.056;2023-07-22T00:54:44;16.40;79.00
47590;DHT22;33316;52.298;9.056;2023-07-22T00:57:12;16.40;79.10
47590;DHT22;33316;52.298;9.056;2023-07-22T00:59:39;16.30;79.10
47590;DHT22;33316;52.298;9.056;2023-07-22T01:02:06;16.30;79.20
47590;DHT22;33316;52.298;9.056;2023-07-22T01:04:33;16.30;79.30
47590;DHT22;33316;52.298;9.056;2023-07-22T01:07:01;16.20;79.40
47590;DHT22;33316;52.298;9.056;2023-07-22T01:09:34;16.30;79.50
47590;DHT22;33316;52.298;9.056;2023-07-22T01:12:02;16.20;79.50
47590;DHT22;33316;52.298;9.056;2023-07-22T01:14:32;16.20;80.40
47590;DHT22;33316;52.298;9.056;2023-07-22T01:17:01;16.20;79.70
47590;DHT22;33316;52.298;9.056;2023-07-22T01:19:28;16.20;79.80
47590;DHT22;33316;52.298;9.056;2023-07-22T01:21:56;16.10;79.80
47590;DHT22;33316;52.298;9.056;2023-07-22T01:24:25;16.10;79.90
47590;DHT22;33316;52.298;9.056;2023-07-22T01:26:52;16.10;80.00
47590;DHT22;33316;52.298;9.056;2023-07-22T01:29:21;16.10;80.10
47590;DHT22;33316;52.298;9.056;2023-07-22T01:31:51;16.10;80.20
47590;DHT22;33316;52.298;9.056;2023-07-22T01:34:18;16.10;80.20
47590;DHT22;33316;52.298;9.056;2023-07-22T01:36:45;16.20;80.30
47590;DHT22;33316;52.298;9.056;2023-07-22T01:39:16;16.10;80.30
47590;DHT22;33316;52.298;9.056;2023-07-22T01:41:45;16.10;80.20
47590;DHT22;33316;52.298;9.056;2023-07-22T01:44:12;16.10;80.20
47590;DHT22;33316;52.298;9.056;2023-07-22T01:46:38;16.10;80.10
47590;DHT22;33316;52.298;9.056;2023-07-22T01:49:11;16.10;80.10
47590;DHT22;33316;52.298;9.056;2023-07-22T01:51:38;16.10;80.00
47590;DHT22;33316;52.298;9.056;2023-07-22T01:54:05;16.10;80.30
47590;DHT22;33316;52.298;9.056;2023-07-22T01:56:33;16.10;79.80
47590;DHT22;33316;52.298;9.056;2023-07-22T01:59:01;16.10;79.80
47590;DHT22;33316;52.298;9.056;2023-07-22T02:01:28;16.00;79.80
47590;DHT22;33316;52.298;9.056;2023-07-22T02:03:55;16.00;79.80
47590;DHT22;33316;52.298;9.056;2023-07-22T02:06:22;16.00;79.80
47590;DHT22;33316;52.298;9.056;2023-07-22T02:08:49;16.00;79.80
47590;DHT22;33316;52.298;9.056;2023-07-22T02:11:16;16.00;79.80
47590;DHT22;33316;52.298;9.056;2023-07-22T02:13:44;16.00;79.80
47590;DHT22;33316;52.298;9.056;2023-07-22T02:16:12;15.90;79.80
47590;DHT22;33316;52.298;9.056;2023-07-22T02:18:39;16.00;79.80
47590;DHT22;33316;52.298;9.056;2023-07-22T02:21:06;15.90;79.80
47590;DHT22;33316;52.298;9.056;2023-07-22T02:23:32;15.90;79.80
47590;DHT22;33316;52.298;9.056;2023-07-22T02:25:59;15.90;79.90
47590;DHT22;33316;52.298;9.056;2023-07-22T02:28:26;15.80;79.80
47590;DHT22;33316;52.298;9.056;2023-07-22T02:30:53;15.80;79.80
47590;DHT22;33316;52.298;9.056;2023-07-22T02:33:22;15.80;79.90
47590;DHT22;33316;52.298;9.056;2023-07-22T02:35:49;15.80;79.90
47590;DHT22;33316;52.298;9.056;2023-07-22T02:38:15;15.80;80.00
47590;DHT22;33316;52.298;9.056;2023-07-22T02:40:42;15.70;80.00
47590;DHT22;33316;52.298;9.056;2023-07-22T02:43:09;15.70;80.00
47590;DHT22;33316;52.298;9.056;2023-07-22T02:45:36;15.70;80.00
47590;DHT22;33316;52.298;9.056;2023-07-22T02:48:04;15.70;80.00
47590;DHT22;33316;52.298;9.056;2023-07-22T02:50:32;15.70;79.90
47590;DHT22;33316;52.298;9.056;2023-07-22T02:52:59;15.70;79.90
47590;DHT22;33316;52.298;9.056;2023-07-22T02:55:26;15.70;79.80
47590;DHT22;33316;52.298;9.056;2023-07-22T02:57:52;15.70;79.80
47590;DHT22;33316;52.298;9.056;2023-07-22T03:00:20;15.60;79.80
47590;DHT22;33316;52.298;9.056;2023-07-22T03:02:50;15.60;79.70
47590;DHT22;33316;52.298;9.056;2023-07-22T03:05:18;15.60;79.60
47590;DHT22;33316;52.298;9.056;2023-07-22T03:07:46;15.60;79.60
47590;DHT22;33316;52.298;9.056;2023-07-22T03:10:13;15.60;79.70
47590;DHT22;33316;52.298;9.056;2023-07-22T03:12:40;15.60;79.70
47590;DHT22;33316;52.298;9.056;2023-07-22T03:15:07;15.60;79.70
47590;DHT22;33316;52.298;9.056;2023-07-22T03:17:35;15.60;79.70
47590;DHT22;33316;52.298;9.056;2023-07-22T03:20:02;15.60;79.70
47590;DHT22;33316;52.298;9.056;2023-07-22T03:22:37;15.60;79.80
47590;DHT22;33316;52.298;9.056;2023-07-22T03:25:06;15.60;79.80
47590;DHT22;33316;52.298;9.056;2023-07-22T03:27:35;15.60;79.80
47590;DHT22;33316;52.298;9.056;2023-07-22T03:30:03;15.60;79.80
47590;DHT22;33316;52.298;9.056;2023-07-22T03:32:32;15.60;79.80
47590;DHT22;33316;52.298;9.056;2023-07-22T03:34:59;15.60;79.80
47590;DHT22;33316;52.298;9.056;2023-07-22T03:37:27;15.50;79.80
47590;DHT22;33316;52.298;9.056;2023-07-22T03:39:54;15.60;79.90
47590;DHT22;33316;52.298;9.056;2023-07-22T03:42:22;15.60;79.90
47590;DHT22;33316;52.298;9.056;2023-07-22T03:44:49;15.60;79.90
47590;DHT22;33316;52.298;9.056;2023-07-22T03:47:15;15.60;79.90
47590;DHT22;33316;52.298;9.056;2023-07-22T03:49:42;15.50;79.80
47590;DHT22;33316;52.298;9.056;2023-07-22T03:52:09;15.60;80.00
47590;DHT22;33316;52.298;9.056;2023-07-22T03:54:39;15.60;80.00
47590;DHT22;33316;52.298;9.056;2023-07-22T03:57:06;15.60;80.00
47590;DHT22;33316;52.298;9.056;2023-07-22T03:59:34;15.60;79.90
47590;DHT22;33316;52.298;9.056;2023-07-22T04:02:02;15.60;80.00
47590;DHT22;33316;52.298;9.056;2023-07-22T04:04:29;15.60;80.00
47590;DHT22;33316;52.298;9.056;2023-07-22T04:06:55;15.60;80.70
47590;DHT22;33316;52.298;9.056;2023-07-22T04:09:22;15.70;80.00
47590;DHT22;33316;52.298;9.056;2023-07-22T04:11:49;15.70;79.90
47590;DHT22;33316;52.298;9.056;2023-07-22T04:14:16;15.70;79.90
47590;DHT22;33316;52.298;9.056;2023-07-22T04:16:44;15.70;79.90
47590;DHT22;33316;52.298;9.056;2023-07-22T04:19:11;15.70;79.90
47590;DHT22;33316;52.298;9.056;2023-07-22T04:21:37;15.70;79.80
47590;DHT22;33316;52.298;9.056;2023-07-22T04:24:04;15.80;79.90
47590;DHT22;33316;52.298;9.056;2023-07-22T04:26:31;15.80;80.00
47590;DHT22;33316;52.298;9.056;2023-07-22T04:28:59;15.80;80.00
47590;DHT22;33316;52.298;9.056;2023-07-22T04:31:26;15.80;80.00
47590;DHT22;33316;52.298;9.056;2023-07-22T04:33:54;15.80;80.00
47590;DHT22;33316;52.298;9.056;2023-07-22T04:36:21;15.80;80.00
47590;DHT22;33316;52.298;9.056;2023-07-22T04:38:48;15.80;80.20
47590;DHT22;33316;52.298;9.056;2023-07-22T04:41:14;15.80;80.20
47590;DHT22;33316;52.298;9.056;2023-07-22T04:43:41;15.80;80.20
47590;DHT22;33316;52.298;9.056;2023-07-22T04:46:08;15.90;80.30
47590;DHT22;33316;52.298;9.056;2023-07-22T04:48:35;15.90;80.20
47590;DHT22;33316;52.298;9.056;2023-07-22T04:51:04;15.90;80.20
47590;DHT22;33316;52.298;9.056;2023-07-22T04:53:30;15.90;80.20
47590;DHT22;33316;52.298;9.056;2023-07-22T04:55:57;16.00;80.20
47590;DHT22;33316;52.298;9.056;2023-07-22T04:58:26;16.00;80.20
47590;DHT22;33316;52.298;9.056;2023-07-22T05:00:53;16.10;80.20
47590;DHT22;33316;52.298;9.056;2023-07-22T05:03:20;16.10;80.20
47590;DHT22;33316;52.298;9.056;2023-07-22T05:05:50;16.00;80.00
47590;DHT22;33316;52.298;9.056;2023-07-22T05:08:18;16.00;80.00
47590;DHT22;33316;52.298;9.056;2023-07-22T05:10:46;16.00;80.20
47590;DHT22;33316;52.298;9.056;2023-07-22T05:13:13;16.00;80.20
47590;DHT22;33316;52.298;9.056;2023-07-22T05:15:40;16.10;80.30
47590;DHT22;33316;52.298;9.056;2023-07-22T05:18:07;16.10;80.30
47590;DHT22;33316;52.298;9.056;2023-07-22T05:20:33;16.10;80.30
47590;DHT22;33316;52.298;9.056;2023-07-22T05:23:00;16.10;80.30
47590;DHT22;33316;52.298;9.056;2023-07-22T05:25:28;16.20;80.30
47590;DHT22;33316;52.298;9.056;2023-07-22T05:27:55;16.20;80.30
47590;DHT22;33316;52.298;9.056;2023-07-22T05:30:22;16.20;80.30
47590;DHT22;33316;52.298;9.056;2023-07-22T05:32:51;16.30;80.20
47590;DHT22;33316;52.298;9.056;2023-07-22T05:35:18;16.30;80.20
47590;DHT22;33316;52.298;9.056;2023-07-22T05:37:45;16.30;80.20
47590;DHT22;33316;52.298;9.056;2023-07-22T05:40:12;16.30;80.20
47590;DHT22;33316;52.298;9.056;2023-07-22T05:42:41;16.30;80.20
47590;DHT22;33316;52.298;9.056;2023-07-22T05:45:08;16.30;80.20
47590;DHT22;33316;52.298;9.056;2023-07-22T05:47:39;16.40;80.30
47590;DHT22;33316;52.298;9.056;2023-07-22T05:50:06;16.50;80.50
47590;DHT22;33316;52.298;9.056;2023-07-22T05:52:33;16.60;79.90
47590;DHT22;33316;52.298;9.056;2023-07-22T05:55:00;16.70;79.80
47590;DHT22;33316;52.298;9.056;2023-07-22T05:57:27;16.70;79.70
47590;DHT22;33316;52.298;9.056;2023-07-22T05:59:55;16.80;79.50
47590;DHT22;33316;52.298;9.056;2023-07-22T06:02:22;17.00;79.40
47590;DHT22;33316;52.298;9.056;2023-07-22T06:04:49;17.20;79.20
47590;DHT22;33316;52.298;9.056;2023-07-22T06:07:15;17.40;78.60
47590;DHT22;33316;52.298;9.056;2023-07-22T06:09:42;17.70;78.00
47590;DHT22;33316;52.298;9.056;2023-07-22T06:12:09;17.80;77.60
47590;DHT22;33316;52.298;9.056;2023-07-22T06:14:36;17.90;77.20
47590;DHT22;33316;52.298;9.056;2023-07-22T06:17:04;18.00;76.90
47590;DHT22;33316;52.298;9.056;2023-07-22T06:19:31;18.20;76.70
47590;DHT22;33316;52.298;9.056;2023-07-22T06:21:57;18.30;76.20
47590;DHT22;33316;52.298;9.056;2023-07-22T06:24:24;18.40;75.80
47590;DHT22;33316;52.298;9.056;2023-07-22T06:26:51;18.50;75.70
47590;DHT22;33316;52.298;9.056;2023-07-22T06:29:18;18.50;75.40
47590;DHT22;33316;52.298;9.056;2023-07-22T06:31:44;18.70;75.30
47590;DHT22;33316;52.298;9.056;2023-07-22T06:34:13;18.70;74.90
47590;DHT22;33316;52.298;9.056;2023-07-22T06:36:39;18.80;74.60
47590;DHT22;33316;52.298;9.056;2023-07-22T06:39:06;18.90;74.40
47590;DHT22;33316;52.298;9.056;2023-07-22T06:41:33;18.90;74.20
47590;DHT22;33316;52.298;9.056;2023-07-22T06:44:00;19.00;73.90
47590;DHT22;33316;52.298;9.056;2023-07-22T06:46:26;19.10;73.80
47590;DHT22;33316;52.298;9.056;2023-07-22T06:48:53;19.30;73.50
47590;DHT22;33316;52.298;9.056;2023-07-22T06:51:22;19.40;73.20
47590;DHT22;33316;52.298;9.056;2023-07-22T06:53:49;19.50;72.90
47590;DHT22;33316;52.298;9.056;2023-07-22T06:56:16;19.50;72.50
47590;DHT22;33316;52.298;9.056;2023-07-22T06:58:42;19.50;72.40
47590;DHT22;33316;52.298;9.056;2023-07-22T07:01:09;19.40;72.30
47590;DHT22;33316;52.298;9.056;2023-07-22T07:03:36;19.40;72.30
47590;DHT22;33316;52.298;9.056;2023-07-22T07:06:03;19.40;72.40
47590;DHT22;33316;52.298;9.056;2023-07-22T07:08:31;19.30;72.50
47590;DHT22;33316;52.298;9.056;2023-07-22T07:11:01;19.30;72.50
47590;DHT22;33316;52.298;9.056;2023-07-22T07:13:28;19.30;72.60
47590;DHT22;33316;52.298;9.056;2023-07-22T07:16:24;19.30;72.50
47590;DHT22;33316;52.298;9.056;2023-07-22T07:18:53;19.30;72.50
47590;DHT22;33316;52.298;9.056;2023-07-22T07:21:21;19.30;72.60
47590;DHT22;33316;52.298;9.056;2023-07-22T07:23:52;19.30;72.60
47590;DHT22;33316;52.298;9.056;2023-07-22T07:26:20;19.40;72.80
47590;DHT22;33316;52.298;9.056;2023-07-22T07:28:50;19.50;72.60
47590;DHT22;33316;52.298;9.056;2023-07-22T07:31:17;19.60;72.20
47590;DHT22;33316;52.298;9.056;2023-07-22T07:33:44;19.70;72.00
47590;DHT22;33316;52.298;9.056;2023-07-22T07:36:11;19.80;71.90
47590;DHT22;33316;52.298;9.056;2023-07-22T07:38:37;19.80;71.70
47590;DHT22;33316;52.298;9.056;2023-07-22T07:41:09;19.80;71.50
47590;DHT22;33316;52.298;9.056;2023-07-22T07:43:37;19.90;71.40
47590;DHT22;33316;52.298;9.056;2023-07-22T07:46:15;19.80;71.10
47590;DHT22;33316;52.298;9.056;2023-07-22T07:48:43;19.80;71.10
47590;DHT22;33316;52.298;9.056;2023-07-22T07:51:12;19.80;71.00
47590;DHT22;33316;52.298;9.056;2023-07-22T07:53:38;19.90;70.90
47590;DHT22;33316;52.298;9.056;2023-07-22T07:56:10;20.00;70.70
47590;DHT22;33316;52.298;9.056;2023-07-22T07:58:37;20.00;70.70
47590;DHT22;33316;52.298;9.056;2023-07-22T08:01:04;20.10;70.40
47590;DHT22;33316;52.298;9.056;2023-07-22T08:03:33;20.10;70.40
47590;DHT22;33316;52.298;9.056;2023-07-22T08:06:03;20.20;70.40
47590;DHT22;33316;52.298;9.056;2023-07-22T08:08:30;20.20;70.20
47590;DHT22;33316;52.298;9.056;2023-07-22T08:10:58;20.20;69.80
47590;DHT22;33316;52.298;9.056;2023-07-22T08:13:27;20.30;69.80
47590;DHT22;33316;52.298;9.056;2023-07-22T08:15:56;20.30;69.50
47590;DHT22;33316;52.298;9.056;2023-07-22T08:18:26;20.40;69.70
47590;DHT22;33316;52.298;9.056;2023-07-22T08:20:53;20.40;69.70
47590;DHT22;33316;52.298;9.056;2023-07-22T08:23:20;20.50;69.70
47590;DHT22;33316;52.298;9.056;2023-07-22T08:25:47;20.50;69.40
47590;DHT22;33316;52.298;9.056;2023-07-22T08:28:14;20.50;69.40
47590;DHT22;33316;52.298;9.056;2023-07-22T08:30:43;20.60;69.30
47590;DHT22;33316;52.298;9.056;2023-07-22T08:33:11;20.70;69.30
47590;DHT22;33316;52.298;9.056;2023-07-22T08:35:40;20.80;69.20
47590;DHT22;33316;52.298;9.056;2023-07-22T08:38:08;20.90;69.00
47590;DHT22;33316;52.298;9.056;2023-07-22T08:40:35;20.90;68.70
47590;DHT22;33316;52.298;9.056;2023-07-22T08:43:04;20.90;68.50
47590;DHT22;33316;52.298;9.056;2023-07-22T08:45:32;21.00;68.50
47590;DHT22;33316;52.298;9.056;2023-07-22T08:48:02;21.00;68.40
47590;DHT22;33316;52.298;9.056;2023-07-22T08:50:37;21.00;68.40
47590;DHT22;33316;52.298;9.056;2023-07-22T08:53:05;21.10;68.20
47590;DHT22;33316;52.298;9.056;2023-07-22T08:55:32;21.10;68.20
47590;DHT22;33316;52.298;9.056;2023-07-22T08:58:00;21.10;68.10
47590;DHT22;33316;52.298;9.056;2023-07-22T09:00:28;21.20;67.90
47590;DHT22;33316;52.298;9.056;2023-07-22T09:02:55;21.20;67.80
47590;DHT22;33316;52.298;9.056;2023-07-22T09:05:23;21.20;67.70
47590;DHT22;33316;52.298;9.056;2023-07-22T09:07:52;21.30;67.50
47590;DHT22;33316;52.298;9.056;2023-07-22T09:10:19;21.40;67.40
47590;DHT22;33316;52.298;9.056;2023-07-22T09:12:47;21.40;66.90
47590;DHT22;33316;52.298;9.056;2023-07-22T09:15:17;21.40;66.90
47590;DHT22;33316;52.298;9.056;2023-07-22T09:17:44;21.40;66.70
47590;DHT22;33316;52.298;9.056;2023-07-22T09:20:12;21.40;66.50
47590;DHT22;33316;52.298;9.056;2023-07-22T09:22:49;21.50;66.40
47590;DHT22;33316;52.298;9.056;2023-07-22T09:25:20;21.50;66.40
47590;DHT22;33316;52.298;9.056;2023-07-22T09:27:47;21.60;66.80
47590;DHT22;33316;52.298;9.056;2023-07-22T09:30:21;21.60;66.70
47590;DHT22;33316;52.298;9.056;2023-07-22T09:32:48;21.60;66.40
47590;DHT22;33316;52.298;9.056;2023-07-22T09:35:16;21.60;66.40
47590;DHT22;33316;52.298;9.056;2023-07-22T09:37:45;21.70;66.40
47590;DHT22;33316;52.298;9.056;2023-07-22T09:40:16;21.70;66.30
47590;DHT22;33316;52.298;9.056;2023-07-22T09:42:46;21.60;65.80
47590;DHT22;33316;52.298;9.056;2023-07-22T09:45:13;21.60;65.70
47590;DHT22;33316;52.298;9.056;2023-07-22T09:47:40;21.60;65.30
47590;DHT22;33316;52.298;9.056;2023-07-22T09:50:11;21.60;65.90
47590;DHT22;33316;52.298;9.056;2023-07-22T09:52:49;21.60;65.00
47590;DHT22;33316;52.298;9.056;2023-07-22T09:55:18;21.60;65.10
47590;DHT22;33316;52.298;9.056;2023-07-22T09:57:51;21.70;65.10
47590;DHT22;33316;52.298;9.056;2023-07-22T10:00:19;21.70;65.10
47590;DHT22;33316;52.298;9.056;2023-07-22T10:02:48;21.80;65.10
47590;DHT22;33316;52.298;9.056;2023-07-22T10:05:16;21.80;65.90
47590;DHT22;33316;52.298;9.056;2023-07-22T10:07:47;21.80;65.00
47590;DHT22;33316;52.298;9.056;2023-07-22T10:10:17;21.90;64.90
47590;DHT22;33316;52.298;9.056;2023-07-22T10:12:44;21.90;65.00
47590;DHT22;33316;52.298;9.056;2023-07-22T10:15:13;22.00;65.10
47590;DHT22;33316;52.298;9.056;2023-07-22T10:17:40;22.00;65.00
47590;DHT22;33316;52.298;9.056;2023-07-22T10:20:08;22.00;64.70
47590;DHT22;33316;52.298;9.056;2023-07-22T10:22:41;22.00;64.40
47590;DHT22;33316;52.298;9.056;2023-07-22T10:25:11;22.00;64.00
47590;DHT22;33316;52.298;9.056;2023-07-22T10:27:39;21.90;63.90
47590;DHT22;33316;52.298;9.056;2023-07-22T10:30:07;21.90;64.10
47590;DHT22;33316;52.298;9.056;2023-07-22T10:32:36;21.90;63.90
47590;DHT22;33316;52.298;9.056;2023-07-22T10:35:03;21.90;63.80
47590;DHT22;33316;52.298;9.056;2023-07-22T10:37:31;21.90;63.90
47590;DHT22;33316;52.298;9.056;2023-07-22T10:40:17;21.90;63.80
47590;DHT22;33316;52.298;9.056;2023-07-22T10:42:54;22.00;64.00
47590;DHT22;33316;52.298;9.056;2023-07-22T10:45:25;22.00;63.00
47590;DHT22;33316;52.298;9.056;2023-07-22T10:48:01;22.00;63.10
47590;DHT22;33316;52.298;9.056;2023-07-22T10:50:41;22.00;62.80
47590;DHT22;33316;52.298;9.056;2023-07-22T10:53:12;22.00;63.10
47590;DHT22;33316;52.298;9.056;2023-07-22T10:56:12;22.00;63.10
47590;DHT22;33316;52.298;9.056;2023-07-22T10:58:57;22.00;63.20
47590;DHT22;33316;52.298;9.056;2023-07-22T11:01:31;21.90;63.40
47590;DHT22;33316;52.298;9.056;2023-07-22T11:04:12;21.90;63.60
47590;DHT22;33316;52.298;9.056;2023-07-22T11:06:52;21.90;63.60
47590;DHT22;33316;52.298;9.056;2023-07-22T11:09:36;22.00;63.80
47590;DHT22;33316;52.298;9.056;2023-07-22T11:12:06;22.00;63.60
47590;DHT22;33316;52.298;9.056;2023-07-22T11:14:35;21.90;63.60
47590;DHT22;33316;52.298;9.056;2023-07-22T11:17:05;21.90;63.80
47590;DHT22;33316;52.298;9.056;2023-07-22T11:19:33;21.90;63.80
47590;DHT22;33316;52.298;9.056;2023-07-22T11:22:01;21.90;64.10
47590;DHT22;33316;52.298;9.056;2023-07-22T11:24:28;21.80;64.10
47590;DHT22;33316;52.298;9.056;2023-07-22T11:26:55;21.80;64.70
47590;DHT22;33316;52.298;9.056;2023-07-22T11:29:23;21.70;64.00
47590;DHT22;33316;52.298;9.056;2023-07-22T11:31:51;21.80;64.30
47590;DHT22;33316;52.298;9.056;2023-07-22T11:34:19;21.70;64.50
47590;DHT22;33316;52.298;9.056;2023-07-22T11:36:47;21.80;64.30
47590;DHT22;33316;52.298;9.056;2023-07-22T11:39:15;21.80;64.00
47590;DHT22;33316;52.298;9.056;2023-07-22T11:41:43;21.80;63.50
47590;DHT22;33316;52.298;9.056;2023-07-22T11:44:11;21.80;63.60
47590;DHT22;33316;52.298;9.056;2023-07-22T11:46:56;21.90;63.60
47590;DHT22;33316;52.298;9.056;2023-07-22T11:49:27;21.90;63.40
47590;DHT22;33316;52.298;9.056;2023-07-22T11:51:55;21.90;63.40
47590;DHT22;33316;52.298;9.056;2023-07-22T11:54:23;21.90;63.40
47590;DHT22;33316;52.298;9.056;2023-07-22T11:56:50;21.90;63.50
47590;DHT22;33316;52.298;9.056;2023-07-22T11:59:16;21.90;63.60
47590;DHT22;33316;52.298;9.056;2023-07-22T12:01:45;21.90;63.60
47590;DHT22;33316;52.298;9.056;2023-07-22T12:04:14;22.00;63.80
47590;DHT22;33316;52.298;9.056;2023-07-22T12:06:41;22.00;63.80
47590;DHT22;33316;52.298;9.056;2023-07-22T12:09:09;22.00;63.90
47590;DHT22;33316;52.298;9.056;2023-07-22T12:11:36;22.10;63.80
47590;DHT22;33316;52.298;9.056;2023-07-22T12:14:10;22.00;63.40
47590;DHT22;33316;52.298;9.056;2023-07-22T12:16:38;22.00;63.40
47590;DHT22;33316;52.298;9.056;2023-07-22T12:19:06;22.00;64.00
47590;DHT22;33316;52.298;9.056;2023-07-22T12:21:35;22.00;64.20
47590;DHT22;33316;52.298;9.056;2023-07-22T12:24:02;22.00;64.20
47590;DHT22;33316;52.298;9.056;2023-07-22T12:26:29;22.00;63.90
47590;DHT22;33316;52.298;9.056;2023-07-22T12:28:56;22.00;63.50
47590;DHT22;33316;52.298;9.056;2023-07-22T12:31:23;21.90;63.40
47590;DHT22;33316;52.298;9.056;2023-07-22T12:33:50;21.90;63.40
47590;DHT22;33316;52.298;9.056;2023-07-22T12:36:16;21.90;63.30
47590;DHT22;33316;52.298;9.056;2023-07-22T12:38:44;21.80;63.40
47590;DHT22;33316;52.298;9.056;2023-07-22T12:41:11;21.80;63.20
47590;DHT22;33316;52.298;9.056;2023-07-22T12:43:38;21.90;63.20
47590;DHT22;33316;52.298;9.056;2023-07-22T12:46:05;21.90;63.20
47590;DHT22;33316;52.298;9.056;2023-07-22T12:48:31;22.00;62.90
47590;DHT22;33316;52.298;9.056;2023-07-22T12:50:58;22.00;62.70
47590;DHT22;33316;52.298;9.056;2023-07-22T12:53:26;22.00;62.40
47590;DHT22;33316;52.298;9.056;2023-07-22T12:55:54;22.10;62.00
47590;DHT22;33316;52.298;9.056;2023-07-22T12:58:20;22.20;62.00
47590;DHT22;33316;52.298;9.056;2023-07-22T13:00:47;22.30;61.90
47590;DHT22;33316;52.298;9.056;2023-07-22T13:03:14;22.30;61.40
47590;DHT22;33316;52.298;9.056;2023-07-22T13:05:40;22.40;60.90
47590;DHT22;33316;52.298;9.056;2023-07-22T13:08:07;22.40;60.50
47590;DHT22;33316;52.298;9.056;2023-07-22T13:10:34;22.40;59.80
47590;DHT22;33316;52.298;9.056;2023-07-22T13:13:04;22.50;59.90
47590;DHT22;33316;52.298;9.056;2023-07-22T13:15:32;22.50;59.50
47590;DHT22;33316;52.298;9.056;2023-07-22T13:17:58;22.60;59.50
47590;DHT22;33316;52.298;9.056;2023-07-22T13:20:25;22.60;59.40
47590;DHT22;33316;52.298;9.056;2023-07-22T13:22:52;22.70;59.60
47590;DHT22;33316;52.298;9.056;2023-07-22T13:25:18;22.70;59.30
47590;DHT22;33316;52.298;9.056;2023-07-22T13:27:45;22.80;59.50
47590;DHT22;33316;52.298;9.056;2023-07-22T13:30:13;22.80;59.00
47590;DHT22;33316;52.298;9.056;2023-07-22T13:32:40;22.80;58.50
47590;DHT22;33316;52.298;9.056;2023-07-22T13:35:07;22.90;58.20
47590;DHT22;33316;52.298;9.056;2023-07-22T13:37:36;22.90;58.00
47590;DHT22;33316;52.298;9.056;2023-07-22T13:40:03;22.90;57.90
47590;DHT22;33316;52.298;9.056;2023-07-22T13:42:35;22.90;57.70
47590;DHT22;33316;52.298;9.056;2023-07-22T13:45:02;22.90;57.70
47590;DHT22;33316;52.298;9.056;2023-07-22T13:47:31;22.90;57.50
47590;DHT22;33316;52.298;9.056;2023-07-22T13:49:57;23.00;57.20
47590;DHT22;33316;52.298;9.056;2023-07-22T13:52:24;23.00;57.30
47590;DHT22;33316;52.298;9.056;2023-07-22T13:54:51;23.00;57.10
47590;DHT22;33316;52.298;9.056;2023-07-22T13:57:18;23.10;57.10
47590;DHT22;33316;52.298;9.056;2023-07-22T13:59:44;23.10;56.60
47590;DHT22;33316;52.298;9.056;2023-07-22T14:02:11;23.10;56.70
47590;DHT22;33316;52.298;9.056;2023-07-22T14:04:39;23.10;56.90
47590;DHT22;33316;52.298;9.056;2023-07-22T14:07:06;23.20;56.70
47590;DHT22;33316;52.298;9.056;2023-07-22T14:09:33;23.20;56.50
47590;DHT22;33316;52.298;9.056;2023-07-22T14:11:59;23.20;56.60
47590;DHT22;33316;52.298;9.056;2023-07-22T14:14:26;23.20;56.30
47590;DHT22;33316;52.298;9.056;2023-07-22T14:16:54;23.20;56.40
47590;DHT22;33316;52.298;9.056;2023-07-22T14:19:21;23.20;56.60
47590;DHT22;33316;52.298;9.056;2023-07-22T14:21:49;23.20;55.50
47590;DHT22;33316;52.298;9.056;2023-07-22T14:24:16;23.20;55.00
47590;DHT22;33316;52.298;9.056;2023-07-22T14:26:44;23.20;55.00
47590;DHT22;33316;52.298;9.056;2023-07-22T14:29:13;23.20;55.00
47590;DHT22;33316;52.298;9.056;2023-07-22T14:31:41;23.20;55.00
47590;DHT22;33316;52.298;9.056;2023-07-22T14:34:08;23.20;54.70
47590;DHT22;33316;52.298;9.056;2023-07-22T14:36:35;23.20;54.80
47590;DHT22;33316;52.298;9.056;2023-07-22T14:39:03;23.20;54.70
47590;DHT22;33316;52.298;9.056;2023-07-22T14:41:30;23.30;54.80
47590;DHT22;33316;52.298;9.056;2023-07-22T14:43:57;23.30;55.00
47590;DHT22;33316;52.298;9.056;2023-07-22T14:46:23;23.30;55.10
47590;DHT22;33316;52.298;9.056;2023-07-22T14:48:50;23.30;55.00
47590;DHT22;33316;52.298;9.056;2023-07-22T14:51:17;23.30;54.80
47590;DHT22;33316;52.298;9.056;2023-07-22T14:53:44;23.30;55.00
47590;DHT22;33316;52.298;9.056;2023-07-22T14:56:12;23.30;54.80
47590;DHT22;33316;52.298;9.056;2023-07-22T14:58:39;23.30;54.70
47590;DHT22;33316;52.298;9.056;2023-07-22T15:01:07;23.30;54.90
47590;DHT22;33316;52.298;9.056;2023-07-22T15:03:34;23.30;55.00
47590;DHT22;33316;52.298;9.056;2023-07-22T15:06:01;23.30;55.10
47590;DHT22;33316;52.298;9.056;2023-07-22T15:08:28;23.20;55.10
47590;DHT22;33316;52.298;9.056;2023-07-22T15:10:54;23.20;54.90
47590;DHT22;33316;52.298;9.056;2023-07-22T15:13:25;23.20;54.80
47590;DHT22;33316;52.298;9.056;2023-07-22T15:15:53;23.10;54.70
47590;DHT22;33316;52.298;9.056;2023-07-22T15:18:24;23.10;54.70
47590;DHT22;33316;52.298;9.056;2023-07-22T15:20:51;23.10;54.80
47590;DHT22;33316;52.298;9.056;2023-07-22T15:23:18;23.00;54.90
47590;DHT22;33316;52.298;9.056;2023-07-22T15:25:45;23.00;54.90
47590;DHT22;33316;52.298;9.056;2023-07-22T15:28:14;23.00;55.10
47590;DHT22;33316;52.298;9.056;2023-07-22T15:30:42;23.00;54.80
47590;DHT22;33316;52.298;9.056;2023-07-22T15:35:55;23.00;54.80
47590;DHT22;33316;52.298;9.056;2023-07-22T15:38:21;22.90;55.00